createdAt,value
2023-01-09T00:00:01.242Z,0
2023-01-09T00:01:01.242Z,0
2023-01-09T00:02:01.219Z,0
2023-01-09T00:03:01.220Z,0
2023-01-09T00:04:01.219Z,0
2023-01-09T00:05:01.212Z,0
2023-01-09T00:06:02.181Z,0
2023-01-09T00:07:01.162Z,0
2023-01-09T00:08:01.156Z,0
2023-01-09T00:09:01.144Z,0
2023-01-09T00:10:01.154Z,0
2023-01-09T00:11:01.122Z,0
2023-01-09T00:12:01.113Z,0
2023-01-09T00:13:01.100Z,0
2023-01-09T00:14:01.095Z,0
2023-01-09T00:15:01.083Z,0
2023-01-09T00:16:01.082Z,0
2023-01-09T00:17:01.058Z,0
2023-01-09T00:18:01.049Z,0
2023-01-09T00:19:01.037Z,0
2023-01-09T00:20:01.029Z,0
2023-01-09T00:21:01.017Z,0
2023-01-09T00:22:01.019Z,0
2023-01-09T00:23:01.010Z,0
2023-01-09T00:24:00.989Z,0
2023-01-09T00:25:00.982Z,0
2023-01-09T00:26:00.973Z,0
2023-01-09T00:27:00.955Z,0
2023-01-09T00:28:00.957Z,0
2023-01-09T00:29:00.930Z,0
2023-01-09T00:30:00.921Z,0
2023-01-09T00:31:00.914Z,0
2023-01-09T00:32:00.898Z,0
2023-01-09T00:33:00.910Z,0
2023-01-09T00:34:00.896Z,0
2023-01-09T00:35:00.867Z,0
2023-01-09T00:36:00.859Z,0
2023-01-09T00:37:00.848Z,0
2023-01-09T00:38:00.836Z,0
2023-01-09T00:39:00.830Z,0
2023-01-09T00:40:00.838Z,0
2023-01-09T00:41:00.818Z,0
2023-01-09T00:42:00.795Z,0
2023-01-09T00:43:00.790Z,0
2023-01-09T00:44:00.783Z,0
2023-01-09T00:45:00.769Z,0
2023-01-09T00:46:00.755Z,0
2023-01-09T00:47:00.753Z,0
2023-01-09T00:48:00.732Z,0
2023-01-09T00:49:00.729Z,0
2023-01-09T00:50:00.724Z,0
2023-01-09T00:51:00.708Z,0
2023-01-09T00:52:00.696Z,0
2023-01-09T00:53:00.674Z,0
2023-01-09T00:54:00.668Z,0
2023-01-09T00:55:00.660Z,0
2023-01-09T00:56:00.658Z,0
2023-01-09T00:57:00.649Z,0
2023-01-09T00:58:00.635Z,0
2023-01-09T00:59:00.633Z,0
2023-01-09T01:00:00.603Z,0
2023-01-09T01:01:00.592Z,0
2023-01-09T01:02:00.599Z,0
2023-01-09T01:03:00.587Z,0
2023-01-09T01:04:00.568Z,0
2023-01-09T01:05:00.570Z,0
2023-01-09T01:06:00.541Z,0
2023-01-09T01:07:00.533Z,0
2023-01-09T01:08:00.525Z,0
2023-01-09T01:09:00.509Z,0
2023-01-09T01:10:00.539Z,0
2023-01-09T01:11:00.486Z,0
2023-01-09T01:12:00.479Z,0
2023-01-09T01:13:00.471Z,0
2023-01-09T01:14:00.480Z,0
2023-01-09T01:15:00.451Z,0
2023-01-09T01:16:00.437Z,0
2023-01-09T01:17:00.454Z,0
2023-01-09T01:18:00.415Z,0
2023-01-09T01:19:00.419Z,0
2023-01-09T01:20:00.394Z,0
2023-01-09T01:21:00.386Z,0
2023-01-09T01:22:00.384Z,0
2023-01-09T01:23:00.369Z,0
2023-01-09T01:24:00.350Z,0
2023-01-09T01:25:00.347Z,0
2023-01-09T01:26:00.373Z,0
2023-01-09T01:27:00.347Z,0
2023-01-09T01:28:00.321Z,0
2023-01-09T01:29:00.303Z,0
2023-01-09T01:30:00.306Z,0
2023-01-09T01:31:00.305Z,0
2023-01-09T01:32:00.273Z,0
2023-01-09T01:33:00.259Z,0
2023-01-09T01:34:00.326Z,0
2023-01-09T01:35:00.237Z,0
2023-01-09T01:36:00.223Z,0
2023-01-09T01:37:00.224Z,0
2023-01-09T01:38:00.206Z,0
2023-01-09T01:39:00.257Z,0
2023-01-09T01:40:00.200Z,0
2023-01-09T01:41:00.169Z,0
2023-01-09T01:42:00.162Z,0
2023-01-09T01:43:00.150Z,0
2023-01-09T01:44:00.143Z,0
2023-01-09T01:45:00.132Z,0
2023-01-09T01:46:00.122Z,0
2023-01-09T01:47:00.124Z,0
2023-01-09T01:48:00.102Z,0
2023-01-09T01:49:00.087Z,0
2023-01-09T01:50:00.078Z,0
2023-01-09T01:51:00.071Z,0
2023-01-09T01:52:00.083Z,0
2023-01-09T01:53:00.044Z,0
2023-01-09T01:54:00.048Z,0
2023-01-09T01:55:00.036Z,0
2023-01-09T01:56:00.012Z,0
2023-01-09T01:57:00.010Z,0
2023-01-09T01:57:59.998Z,0
2023-01-09T01:58:59.987Z,0
2023-01-09T02:00:00.031Z,0
2023-01-09T02:00:59.963Z,0
2023-01-09T02:01:59.952Z,0
2023-01-09T02:02:59.950Z,0
2023-01-09T02:03:59.952Z,0
2023-01-09T02:04:59.918Z,0
2023-01-09T02:05:59.909Z,0
2023-01-09T02:06:59.907Z,0
2023-01-09T02:07:59.884Z,0
2023-01-09T02:08:59.880Z,0
2023-01-09T02:09:59.867Z,0
2023-01-09T02:10:59.855Z,0
2023-01-09T02:11:59.850Z,0
2023-01-09T02:12:59.865Z,0
2023-01-09T02:13:59.828Z,0
2023-01-09T02:14:59.816Z,0
2023-01-09T02:15:59.806Z,0
2023-01-09T02:16:59.789Z,0
2023-01-09T02:17:59.786Z,0
2023-01-09T02:18:59.792Z,0
2023-01-09T02:19:59.768Z,0
2023-01-09T02:20:59.759Z,0
2023-01-09T02:21:59.737Z,0
2023-01-09T02:22:59.723Z,0
2023-01-09T02:23:59.716Z,0
2023-01-09T02:24:59.724Z,0
2023-01-09T02:25:59.699Z,0
2023-01-09T02:26:59.682Z,0
2023-01-09T02:27:59.688Z,0
2023-01-09T02:28:59.663Z,0
2023-01-09T02:29:59.651Z,0
2023-01-09T02:30:59.662Z,0
2023-01-09T02:31:59.631Z,0
2023-01-09T02:32:59.628Z,0
2023-01-09T02:33:59.618Z,0
2023-01-09T02:34:59.599Z,0
2023-01-09T02:35:59.596Z,0
2023-01-09T02:36:59.574Z,0
2023-01-09T02:37:59.608Z,0
2023-01-09T02:38:59.559Z,0
2023-01-09T02:39:59.566Z,0
2023-01-09T02:40:59.539Z,0
2023-01-09T02:41:59.529Z,0
2023-01-09T02:42:59.541Z,0
2023-01-09T02:43:59.515Z,0
2023-01-09T02:44:59.502Z,0
2023-01-09T02:45:59.495Z,0
2023-01-09T02:46:59.527Z,0
2023-01-09T02:47:59.472Z,0
2023-01-09T02:48:59.465Z,0
2023-01-09T02:49:59.446Z,0
2023-01-09T02:50:59.434Z,0
2023-01-09T02:51:59.418Z,0
2023-01-09T02:52:59.410Z,0
2023-01-09T02:53:59.410Z,0
2023-01-09T02:54:59.386Z,0
2023-01-09T02:55:59.378Z,0
2023-01-09T02:56:59.364Z,0
2023-01-09T02:57:59.366Z,0
2023-01-09T02:58:59.350Z,0
2023-01-09T02:59:59.368Z,0
2023-01-09T03:00:59.322Z,0
2023-01-09T03:01:59.318Z,0
2023-01-09T03:02:59.314Z,0
2023-01-09T03:03:59.349Z,0
2023-01-09T03:04:59.281Z,0
2023-01-09T03:05:59.293Z,0
2023-01-09T03:06:59.275Z,0
2023-01-09T03:07:59.310Z,0
2023-01-09T03:08:59.239Z,0
2023-01-09T03:09:59.232Z,0
2023-01-09T03:10:59.222Z,0
2023-01-09T03:11:59.202Z,0
2023-01-09T03:12:59.209Z,0
2023-01-09T03:13:59.191Z,0
2023-01-09T03:14:59.180Z,0
2023-01-09T03:15:59.169Z,0
2023-01-09T03:16:59.151Z,0
2023-01-09T03:17:59.174Z,0
2023-01-09T03:18:59.163Z,0
2023-01-09T03:19:59.120Z,0
2023-01-09T03:20:59.109Z,0
2023-01-09T03:21:59.118Z,0
2023-01-09T03:22:59.101Z,0
2023-01-09T03:23:59.075Z,0
2023-01-09T03:24:59.068Z,0
2023-01-09T03:25:59.071Z,0
2023-01-09T03:26:59.098Z,0
2023-01-09T03:27:59.050Z,0
2023-01-09T03:28:59.021Z,0
2023-01-09T03:29:59.097Z,0
2023-01-09T03:30:59.000Z,0
2023-01-09T03:31:59.000Z,0
2023-01-09T03:32:59.014Z,0
2023-01-09T03:33:58.983Z,0
2023-01-09T03:34:58.960Z,0
2023-01-09T03:35:58.953Z,0
2023-01-09T03:36:58.949Z,0
2023-01-09T03:37:58.925Z,0
2023-01-09T03:38:58.915Z,0
2023-01-09T03:39:58.903Z,0
2023-01-09T03:40:58.899Z,0
2023-01-09T03:41:58.882Z,0
2023-01-09T03:42:58.868Z,0
2023-01-09T03:43:58.888Z,0
2023-01-09T03:44:58.863Z,0
2023-01-09T03:45:58.839Z,0
2023-01-09T03:46:58.875Z,0
2023-01-09T03:47:58.831Z,0
2023-01-09T03:48:58.814Z,0
2023-01-09T03:49:58.799Z,0
2023-01-09T03:50:58.790Z,0
2023-01-09T03:51:58.808Z,0
2023-01-09T03:52:58.787Z,0
2023-01-09T03:53:58.751Z,0
2023-01-09T03:54:58.748Z,0
2023-01-09T03:55:58.736Z,0
2023-01-09T03:56:58.736Z,0
2023-01-09T03:57:58.711Z,0
2023-01-09T03:58:58.742Z,0
2023-01-09T03:59:58.695Z,0
2023-01-09T04:00:58.688Z,0
2023-01-09T04:01:58.689Z,0
2023-01-09T04:02:58.687Z,0
2023-01-09T04:03:58.650Z,0
2023-01-09T04:04:58.636Z,0
2023-01-09T04:05:58.637Z,0
2023-01-09T04:06:58.612Z,0
2023-01-09T04:07:58.614Z,0
2023-01-09T04:08:58.590Z,0
2023-01-09T04:09:58.594Z,0
2023-01-09T04:10:58.572Z,0
2023-01-09T04:11:58.560Z,0
2023-01-09T04:12:58.588Z,0
2023-01-09T04:13:58.541Z,0
2023-01-09T04:14:58.540Z,0
2023-01-09T04:15:58.517Z,0
2023-01-09T04:16:58.503Z,0
2023-01-09T04:17:58.505Z,0
2023-01-09T04:18:58.513Z,0
2023-01-09T04:19:58.475Z,0
2023-01-09T04:20:58.463Z,0
2023-01-09T04:21:58.508Z,0
2023-01-09T04:22:58.442Z,0
2023-01-09T04:23:58.445Z,0
2023-01-09T04:24:58.420Z,0
2023-01-09T04:25:58.414Z,0
2023-01-09T04:26:58.403Z,0
2023-01-09T04:27:58.393Z,0
2023-01-09T04:28:58.378Z,0
2023-01-09T04:29:58.363Z,0
2023-01-09T04:30:58.362Z,0
2023-01-09T04:31:58.366Z,0
2023-01-09T04:32:58.336Z,0
2023-01-09T04:33:58.323Z,0
2023-01-09T04:34:58.316Z,0
2023-01-09T04:35:58.306Z,0
2023-01-09T04:36:58.329Z,0
2023-01-09T04:37:58.294Z,0
2023-01-09T04:38:58.302Z,0
2023-01-09T04:39:58.259Z,0
2023-01-09T04:40:58.252Z,0
2023-01-09T04:41:58.252Z,0
2023-01-09T04:42:58.235Z,0
2023-01-09T04:43:58.238Z,0
2023-01-09T04:44:58.203Z,0
2023-01-09T04:45:58.213Z,0
2023-01-09T04:46:58.184Z,0
2023-01-09T04:47:58.177Z,0
2023-01-09T04:48:58.182Z,0
2023-01-09T04:49:58.158Z,0
2023-01-09T04:50:58.142Z,0
2023-01-09T04:51:58.126Z,0
2023-01-09T04:52:58.126Z,0
2023-01-09T04:53:58.109Z,0
2023-01-09T04:54:58.104Z,0
2023-01-09T04:55:58.084Z,0
2023-01-09T04:56:58.072Z,0
2023-01-09T04:57:58.062Z,0
2023-01-09T04:58:58.083Z,0
2023-01-09T04:59:58.054Z,0
2023-01-09T05:00:58.033Z,0
2023-01-09T05:01:58.021Z,0
2023-01-09T05:02:58.006Z,0
2023-01-09T05:03:58.011Z,0
2023-01-09T05:04:58.019Z,0
2023-01-09T05:05:57.980Z,0
2023-01-09T05:06:57.974Z,0
2023-01-09T05:07:57.957Z,0
2023-01-09T05:08:57.947Z,0
2023-01-09T05:09:57.937Z,0
2023-01-09T05:10:57.942Z,0
2023-01-09T05:11:57.918Z,0
2023-01-09T05:12:57.905Z,0
2023-01-09T05:13:57.894Z,0
2023-01-09T05:15:48.516Z,0
2023-01-09T05:16:48.508Z,0
2023-01-09T05:17:48.503Z,0
2023-01-09T05:18:48.481Z,0
2023-01-09T05:19:48.467Z,0
2023-01-09T05:20:48.458Z,0
2023-01-09T05:21:48.449Z,0
2023-01-09T05:22:48.438Z,0
2023-01-09T05:23:48.431Z,0
2023-01-09T05:24:48.412Z,0
2023-01-09T05:25:48.402Z,0
2023-01-09T05:26:48.394Z,0
2023-01-09T05:27:48.384Z,0
2023-01-09T05:28:48.386Z,0
2023-01-09T05:29:48.379Z,0
2023-01-09T05:30:48.351Z,0
2023-01-09T05:31:48.344Z,0
2023-01-09T05:32:48.330Z,0
2023-01-09T05:33:48.340Z,0
2023-01-09T05:34:48.314Z,0
2023-01-09T05:35:48.319Z,0
2023-01-09T05:36:48.292Z,0
2023-01-09T05:37:48.277Z,0
2023-01-09T05:38:48.335Z,0
2023-01-09T05:39:48.257Z,0
2023-01-09T05:40:48.252Z,0
2023-01-09T05:41:48.260Z,0
2023-01-09T05:42:48.228Z,0
2023-01-09T05:43:48.227Z,0
2023-01-09T05:44:48.202Z,0
2023-01-09T05:45:48.202Z,0
2023-01-09T05:46:48.192Z,0
2023-01-09T05:47:48.186Z,0
2023-01-09T05:48:48.194Z,0
2023-01-09T05:49:48.152Z,0
2023-01-09T05:50:48.153Z,0
2023-01-09T05:51:48.131Z,0
2023-01-09T05:52:48.143Z,0
2023-01-09T05:53:48.109Z,0
2023-01-09T05:54:48.100Z,0
2023-01-09T05:55:48.092Z,0
2023-01-09T05:56:48.079Z,0
2023-01-09T05:57:48.075Z,0
2023-01-09T05:58:48.059Z,0
2023-01-09T05:59:48.046Z,0
2023-01-09T06:00:48.040Z,0
2023-01-09T06:01:48.029Z,0
2023-01-09T06:02:48.017Z,0
2023-01-09T06:03:48.014Z,0
2023-01-09T06:04:47.997Z,0
2023-01-09T06:05:47.985Z,0
2023-01-09T06:06:47.978Z,0
2023-01-09T06:07:47.964Z,0
2023-01-09T06:08:47.956Z,0
2023-01-09T06:09:47.963Z,0
2023-01-09T06:10:47.947Z,0
2023-01-09T06:11:47.921Z,0
2023-01-09T06:12:47.917Z,0
2023-01-09T06:13:47.897Z,0
2023-01-09T06:14:47.889Z,0
2023-01-09T06:15:47.891Z,0
2023-01-09T06:16:47.879Z,0
2023-01-09T06:17:47.861Z,0
2023-01-09T06:18:47.857Z,0
2023-01-09T06:19:47.835Z,0
2023-01-09T06:20:47.829Z,0
2023-01-09T06:21:47.829Z,0
2023-01-09T06:22:47.821Z,0
2023-01-09T06:23:47.794Z,0
2023-01-09T06:24:47.784Z,0
2023-01-09T06:25:47.773Z,0
2023-01-09T06:26:47.784Z,0
2023-01-09T06:27:47.754Z,0
2023-01-09T06:28:47.744Z,0
2023-01-09T06:29:47.730Z,0
2023-01-09T06:30:47.719Z,0
2023-01-09T06:31:47.711Z,0
2023-01-09T06:32:47.704Z,0
2023-01-09T06:33:47.702Z,0
2023-01-09T06:34:47.685Z,0
2023-01-09T06:35:47.672Z,0
2023-01-09T06:36:47.667Z,0
2023-01-09T06:37:47.650Z,0
2023-01-09T06:38:47.650Z,0
2023-01-09T06:39:47.632Z,0
2023-01-09T06:40:47.612Z,0
2023-01-09T06:41:47.615Z,0
2023-01-09T06:42:47.595Z,0
2023-01-09T06:43:47.585Z,0
2023-01-09T06:44:47.583Z,0
2023-01-09T06:45:47.566Z,0
2023-01-09T06:46:47.566Z,0
2023-01-09T06:47:47.542Z,0
2023-01-09T06:48:47.534Z,0
2023-01-09T06:49:47.534Z,0
2023-01-09T06:50:47.512Z,0
2023-01-09T06:51:47.516Z,0
2023-01-09T06:52:47.489Z,0
2023-01-09T06:53:47.481Z,0
2023-01-09T06:54:47.467Z,0
2023-01-09T06:55:47.456Z,0
2023-01-09T06:56:47.446Z,0
2023-01-09T06:57:47.436Z,0
2023-01-09T06:58:47.423Z,0
2023-01-09T06:59:47.420Z,0
2023-01-09T07:00:47.406Z,0
2023-01-09T07:01:47.395Z,0
2023-01-09T07:02:47.381Z,0
2023-01-09T07:03:47.398Z,0
2023-01-09T07:04:47.363Z,0
2023-01-09T07:05:47.356Z,0
2023-01-09T07:06:47.353Z,0
2023-01-09T07:07:47.344Z,0
2023-01-09T07:08:47.334Z,0
2023-01-09T07:09:47.315Z,0
2023-01-09T07:10:47.297Z,0
2023-01-09T07:11:47.300Z,0
2023-01-09T07:12:47.279Z,0
2023-01-09T07:13:47.273Z,0
2023-01-09T07:14:47.253Z,0
2023-01-09T07:15:47.244Z,0
2023-01-09T07:16:47.234Z,0
2023-01-09T07:17:47.221Z,0
2023-01-09T07:18:47.218Z,0
2023-01-09T07:19:47.199Z,0
2023-01-09T07:20:47.189Z,0
2023-01-09T07:21:47.180Z,0
2023-01-09T07:22:47.187Z,0
2023-01-09T07:23:47.166Z,0
2023-01-09T07:24:47.157Z,0
2023-01-09T07:25:47.137Z,0
2023-01-09T07:26:47.268Z,0
2023-01-09T07:27:47.140Z,0
2023-01-09T07:28:47.110Z,0
2023-01-09T07:29:47.110Z,0
2023-01-09T07:30:47.092Z,0
2023-01-09T07:31:47.107Z,0
2023-01-09T07:32:47.092Z,0
2023-01-09T07:33:47.062Z,0
2023-01-09T07:34:47.057Z,0
2023-01-09T07:35:47.031Z,0
2023-01-09T07:36:47.254Z,0
2023-01-09T07:37:47.026Z,0
2023-01-09T07:38:46.999Z,0
2023-01-09T07:39:47.005Z,0
2023-01-09T07:40:46.981Z,0
2023-01-09T07:41:46.970Z,0
2023-01-09T07:42:46.974Z,0
2023-01-09T07:43:47.079Z,0
2023-01-09T07:44:46.943Z,0
2023-01-09T07:45:46.930Z,0
2023-01-09T07:46:46.916Z,0
2023-01-09T07:47:46.905Z,0
2023-01-09T07:48:46.906Z,5.62
2023-01-09T07:49:46.913Z,5.62
2023-01-09T07:50:46.894Z,5.62
2023-01-09T07:51:46.937Z,5.62
2023-01-09T07:52:46.903Z,5.62
2023-01-09T07:53:46.847Z,11.25
2023-01-09T07:54:46.884Z,11.25
2023-01-09T07:55:46.851Z,11.25
2023-01-09T07:56:46.833Z,16.88
2023-01-09T07:57:46.827Z,11.25
2023-01-09T07:58:46.793Z,5.62
2023-01-09T07:59:46.785Z,5.62
2023-01-09T08:00:46.801Z,5.62
2023-01-09T08:01:46.783Z,5.62
2023-01-09T08:02:46.767Z,5.62
2023-01-09T08:03:46.749Z,5.62
2023-01-09T08:04:46.756Z,5.62
2023-01-09T08:05:46.728Z,5.62
2023-01-09T08:06:46.715Z,5.62
2023-01-09T08:07:46.704Z,5.62
2023-01-09T08:08:46.699Z,5.62
2023-01-09T08:09:46.673Z,5.62
2023-01-09T08:10:46.662Z,5.62
2023-01-09T08:11:46.669Z,5.62
2023-01-09T08:12:46.682Z,5.62
2023-01-09T08:13:46.632Z,5.62
2023-01-09T08:14:46.621Z,11.25
2023-01-09T08:15:46.615Z,5.62
2023-01-09T08:16:46.605Z,11.25
2023-01-09T08:17:46.607Z,11.25
2023-01-09T08:18:46.605Z,11.25
2023-01-09T08:19:46.572Z,16.88
2023-01-09T08:20:46.559Z,22.5
2023-01-09T08:21:46.547Z,22.5
2023-01-09T08:22:46.543Z,22.5
2023-01-09T08:23:46.541Z,16.88
2023-01-09T08:24:46.553Z,16.88
2023-01-09T08:25:46.513Z,16.88
2023-01-09T08:26:46.513Z,11.25
2023-01-09T08:27:46.487Z,11.25
2023-01-09T08:28:46.483Z,11.25
2023-01-09T08:29:46.484Z,11.25
2023-01-09T08:30:46.457Z,16.88
2023-01-09T08:31:46.642Z,16.88
2023-01-09T08:32:46.435Z,16.88
2023-01-09T08:33:46.425Z,22.5
2023-01-09T08:34:46.422Z,28.12
2023-01-09T08:35:46.449Z,39.38
2023-01-09T08:36:46.437Z,39.38
2023-01-09T08:37:46.426Z,50.62
2023-01-09T08:38:46.377Z,50.62
2023-01-09T08:39:46.366Z,56.25
2023-01-09T08:40:46.367Z,45
2023-01-09T08:41:46.332Z,45
2023-01-09T08:42:46.328Z,39.38
2023-01-09T08:43:46.319Z,33.75
2023-01-09T08:44:46.309Z,33.75
2023-01-09T08:45:46.310Z,39.38
2023-01-09T08:46:46.345Z,39.38
2023-01-09T08:47:46.276Z,39.38
2023-01-09T08:48:46.301Z,39.38
2023-01-09T08:49:46.284Z,39.38
2023-01-09T08:50:46.266Z,39.38
2023-01-09T08:51:46.241Z,33.75
2023-01-09T08:52:46.242Z,39.38
2023-01-09T08:53:46.206Z,39.38
2023-01-09T08:54:46.267Z,45
2023-01-09T08:55:46.188Z,50.62
2023-01-09T08:56:46.203Z,33.75
2023-01-09T08:57:46.201Z,28.12
2023-01-09T08:58:46.170Z,28.12
2023-01-09T08:59:46.146Z,28.12
2023-01-09T09:00:46.138Z,33.75
2023-01-09T09:01:46.122Z,33.75
2023-01-09T09:02:46.135Z,45
2023-01-09T09:03:46.118Z,39.38
2023-01-09T09:04:46.097Z,33.75
2023-01-09T09:05:46.086Z,33.75
2023-01-09T09:06:46.092Z,33.75
2023-01-09T09:07:46.072Z,28.12
2023-01-09T09:08:46.065Z,28.12
2023-01-09T09:09:46.046Z,33.75
2023-01-09T09:10:46.034Z,33.75
2023-01-09T09:11:46.018Z,39.38
2023-01-09T09:12:46.007Z,50.62
2023-01-09T09:13:46.049Z,45
2023-01-09T09:14:46.004Z,45
2023-01-09T09:15:46.004Z,56.25
2023-01-09T09:16:45.967Z,67.5
2023-01-09T09:17:45.965Z,56.25
2023-01-09T09:18:45.943Z,56.25
2023-01-09T09:19:45.991Z,50.62
2023-01-09T09:20:45.933Z,56.25
2023-01-09T09:21:46.049Z,50.62
2023-01-09T09:22:45.909Z,45
2023-01-09T09:23:45.892Z,39.38
2023-01-09T09:24:45.897Z,45
2023-01-09T09:25:45.873Z,45
2023-01-09T09:26:54.507Z,50.62
2023-01-09T09:27:53.502Z,56.25
2023-01-09T09:28:45.838Z,61.88
2023-01-09T09:29:45.824Z,50.62
2023-01-09T09:30:45.834Z,39.38
2023-01-09T09:31:45.814Z,39.38
2023-01-09T09:32:45.821Z,39.38
2023-01-09T09:33:45.838Z,45
2023-01-09T09:34:45.778Z,50.62
2023-01-09T09:35:45.773Z,61.88
2023-01-09T09:36:45.772Z,67.5
2023-01-09T09:37:45.751Z,67.5
2023-01-09T09:38:45.749Z,67.5
2023-01-09T09:39:45.729Z,84.38
2023-01-09T09:40:45.748Z,78.75
2023-01-09T09:41:45.794Z,73.12
2023-01-09T09:42:45.699Z,61.88
2023-01-09T09:43:45.685Z,67.5
2023-01-09T09:44:45.681Z,73.12
2023-01-09T09:45:45.699Z,73.12
2023-01-09T09:46:45.711Z,61.88
2023-01-09T09:47:45.638Z,61.88
2023-01-09T09:48:45.646Z,61.88
2023-01-09T09:49:45.629Z,61.88
2023-01-09T09:50:45.609Z,56.25
2023-01-09T09:51:45.603Z,56.25
2023-01-09T09:52:45.613Z,67.5
2023-01-09T09:53:45.584Z,73.12
2023-01-09T09:54:45.583Z,67.5
2023-01-09T09:55:45.553Z,61.88
2023-01-09T09:56:45.560Z,61.88
2023-01-09T09:57:45.538Z,67.5
2023-01-09T09:58:45.531Z,61.88
2023-01-09T09:59:45.512Z,73.12
2023-01-09T10:00:45.505Z,73.12
2023-01-09T10:01:45.506Z,78.75
2023-01-09T10:02:45.525Z,84.38
2023-01-09T10:03:45.471Z,84.38
2023-01-09T10:04:45.492Z,84.38
2023-01-09T10:05:45.485Z,73.12
2023-01-09T10:06:45.459Z,84.38
2023-01-09T10:07:45.465Z,84.38
2023-01-09T10:08:45.448Z,84.38
2023-01-09T10:09:45.446Z,78.75
2023-01-09T10:10:45.415Z,84.38
2023-01-09T10:11:45.402Z,67.5
2023-01-09T10:12:45.412Z,78.75
2023-01-09T10:13:45.386Z,78.75
2023-01-09T10:14:45.381Z,61.88
2023-01-09T10:15:45.350Z,61.88
2023-01-09T10:16:45.342Z,90
2023-01-09T10:17:45.351Z,84.38
2023-01-09T10:18:45.366Z,78.75
2023-01-09T10:19:45.338Z,73.12
2023-01-09T10:20:45.302Z,84.38
2023-01-09T10:21:45.284Z,106.88
2023-01-09T10:22:45.289Z,84.38
2023-01-09T10:23:45.276Z,84.38
2023-01-09T10:24:45.270Z,95.62
2023-01-09T10:25:45.269Z,101.25
2023-01-09T10:26:45.256Z,101.25
2023-01-09T10:27:45.229Z,118.12
2023-01-09T10:28:45.225Z,129.38
2023-01-09T10:29:45.361Z,112.5
2023-01-09T10:30:45.407Z,129.38
2023-01-09T10:31:45.229Z,140.62
2023-01-09T10:32:45.214Z,112.5
2023-01-09T10:33:45.171Z,95.62
2023-01-09T10:34:45.150Z,90
2023-01-09T10:35:45.138Z,95.62
2023-01-09T10:36:45.142Z,106.88
2023-01-09T10:37:45.121Z,106.88
2023-01-09T10:38:45.165Z,95.62
2023-01-09T10:39:45.283Z,84.38
2023-01-09T10:40:45.110Z,78.75
2023-01-09T10:41:45.628Z,84.38
2023-01-09T10:42:45.374Z,84.38
2023-01-09T10:43:45.084Z,84.38
2023-01-09T10:44:45.059Z,78.75
2023-01-09T10:45:45.041Z,78.75
2023-01-09T10:46:45.039Z,90
2023-01-09T10:47:45.024Z,95.62
2023-01-09T10:48:45.033Z,106.88
2023-01-09T10:49:45.011Z,129.38
2023-01-09T10:50:44.995Z,118.12
2023-01-09T10:51:45.038Z,101.25
2023-01-09T10:52:44.966Z,95.62
2023-01-09T10:53:44.998Z,106.88
2023-01-09T10:54:44.939Z,106.88
2023-01-09T10:55:44.926Z,95.62
2023-01-09T10:56:44.959Z,73.12
2023-01-09T10:57:45.179Z,73.12
2023-01-09T10:58:44.902Z,73.12
2023-01-09T10:59:44.884Z,67.5
2023-01-09T11:00:44.888Z,61.88
2023-01-09T11:01:44.953Z,67.5
2023-01-09T11:02:44.879Z,67.5
2023-01-09T11:03:44.844Z,73.12
2023-01-09T11:04:44.848Z,67.5
2023-01-09T11:05:44.830Z,56.25
2023-01-09T11:06:44.814Z,56.25
2023-01-09T11:07:44.821Z,78.75
2023-01-09T11:08:44.797Z,90
2023-01-09T11:09:44.785Z,84.38
2023-01-09T11:10:44.773Z,90
2023-01-09T11:11:44.765Z,95.62
2023-01-09T11:12:44.753Z,106.88
2023-01-09T11:13:44.742Z,118.12
2023-01-09T11:14:44.893Z,123.75
2023-01-09T11:15:45.719Z,106.88
2023-01-09T11:16:44.717Z,84.38
2023-01-09T11:17:44.919Z,67.5
2023-01-09T11:18:44.715Z,56.25
2023-01-09T11:19:44.701Z,73.12
2023-01-09T11:24:56.842Z,50.62
2023-01-09T11:27:07.175Z,56.25
2023-01-09T11:28:08.104Z,50.62
2023-01-09T11:29:07.085Z,45
2023-01-09T11:30:07.086Z,50.62
2023-01-09T11:31:07.643Z,45
2023-01-09T11:32:07.052Z,56.25
2023-01-09T11:33:07.049Z,61.88
2023-01-09T11:34:07.046Z,73.12
2023-01-09T11:35:07.020Z,78.75
2023-01-09T11:36:07.139Z,73.12
2023-01-09T11:37:07.017Z,73.12
2023-01-09T11:38:07.002Z,73.12
2023-01-09T11:39:07.439Z,67.5
2023-01-09T11:40:07.853Z,61.88
2023-01-09T11:41:06.951Z,56.25
2023-01-09T11:42:06.947Z,45
2023-01-09T11:43:06.949Z,33.75
2023-01-09T11:44:06.976Z,28.12
2023-01-09T11:45:06.933Z,28.12
2023-01-09T11:46:06.926Z,33.75
2023-01-09T11:47:06.901Z,45
2023-01-09T11:48:06.882Z,56.25
2023-01-09T11:49:06.872Z,67.5
2023-01-09T11:50:06.866Z,73.12
2023-01-09T11:51:06.874Z,73.12
2023-01-09T11:52:06.842Z,67.5
2023-01-09T11:53:06.839Z,61.88
2023-01-09T11:54:06.818Z,61.88
2023-01-09T11:55:06.834Z,61.88
2023-01-09T11:56:06.814Z,56.25
2023-01-09T11:57:06.798Z,50.62
2023-01-09T11:58:06.777Z,45
2023-01-09T11:59:06.827Z,50.62
2023-01-09T12:00:06.782Z,45
2023-01-09T12:01:06.758Z,39.38
2023-01-09T12:02:06.742Z,33.75
2023-01-09T12:03:07.225Z,33.75
2023-01-09T12:04:06.721Z,33.75
2023-01-09T12:05:06.720Z,33.75
2023-01-09T12:06:06.707Z,28.12
2023-01-09T12:07:06.685Z,28.12
2023-01-09T12:08:06.688Z,33.75
2023-01-09T12:09:06.707Z,33.75
2023-01-09T12:10:06.656Z,39.38
2023-01-09T12:11:06.645Z,39.38
2023-01-09T12:12:06.634Z,39.38
2023-01-09T12:13:06.623Z,39.38
2023-01-09T12:14:06.613Z,39.38
2023-01-09T12:15:06.641Z,39.38
2023-01-09T12:16:06.593Z,50.62
2023-01-09T12:17:06.676Z,56.25
2023-01-09T12:18:06.632Z,73.12
2023-01-09T12:19:06.572Z,67.5
2023-01-09T12:20:06.574Z,61.88
2023-01-09T12:21:06.552Z,45
2023-01-09T12:22:06.536Z,39.38
2023-01-09T12:23:06.535Z,39.38
2023-01-09T12:24:06.531Z,50.62
2023-01-09T12:25:06.521Z,61.88
2023-01-09T12:26:06.558Z,61.88
2023-01-09T12:27:07.487Z,61.88
2023-01-09T12:28:06.466Z,56.25
2023-01-09T12:29:06.475Z,56.25
2023-01-09T12:30:06.875Z,61.88
2023-01-09T12:31:06.468Z,50.62
2023-01-09T12:32:06.495Z,45
2023-01-09T12:33:06.570Z,45
2023-01-09T12:34:06.835Z,50.62
2023-01-09T12:35:06.401Z,39.38
2023-01-09T12:36:06.400Z,33.75
2023-01-09T12:37:06.413Z,28.12
2023-01-09T12:38:06.390Z,22.5
2023-01-09T12:39:06.352Z,33.75
2023-01-09T12:40:06.358Z,39.38
2023-01-09T12:41:06.348Z,45
2023-01-09T12:42:06.321Z,56.25
2023-01-09T12:43:06.342Z,45
2023-01-09T12:44:07.111Z,39.38
2023-01-09T12:45:06.370Z,28.12
2023-01-09T12:46:07.271Z,28.12
2023-01-09T12:47:06.294Z,28.12
2023-01-09T12:48:06.271Z,28.12
2023-01-09T12:49:06.738Z,45
2023-01-09T12:50:13.895Z,45
2023-01-09T14:47:42.335Z,22.5
2023-01-09T14:48:42.370Z,28.12
2023-01-09T14:49:42.312Z,28.12
2023-01-09T14:50:42.279Z,28.12
2023-01-09T14:51:42.270Z,28.12
2023-01-09T14:52:42.296Z,28.12
2023-01-09T14:53:42.267Z,22.5
2023-01-09T14:54:42.298Z,22.5
2023-01-09T14:55:42.242Z,22.5
2023-01-09T14:56:42.223Z,22.5
2023-01-09T14:57:42.419Z,16.88
2023-01-09T14:58:42.254Z,16.88
2023-01-09T14:59:42.205Z,16.88
2023-01-09T15:00:42.178Z,16.88
2023-01-09T15:01:42.164Z,16.88
2023-01-09T15:02:42.186Z,16.88
2023-01-09T15:03:42.154Z,16.88
2023-01-09T15:04:42.137Z,16.88
2023-01-09T15:05:42.131Z,11.25
2023-01-09T15:06:42.147Z,11.25
2023-01-09T15:07:42.099Z,11.25
2023-01-09T15:08:42.091Z,11.25
2023-01-09T15:09:42.096Z,11.25
2023-01-09T15:10:42.086Z,11.25
2023-01-09T15:11:42.060Z,11.25
2023-01-09T15:12:42.047Z,11.25
2023-01-09T15:13:42.047Z,5.62
2023-01-09T15:14:42.030Z,5.62
2023-01-09T15:15:42.064Z,5.62
2023-01-09T15:16:42.020Z,5.62
2023-01-09T15:17:42.091Z,5.62
2023-01-09T15:18:41.984Z,5.62
2023-01-09T15:19:42.050Z,5.62
2023-01-09T15:20:41.973Z,5.62
2023-01-09T15:21:41.968Z,5.62
2023-01-09T15:22:41.951Z,5.62
2023-01-09T15:23:41.950Z,0
2023-01-09T15:24:42.577Z,0
2023-01-09T15:25:41.912Z,0
2023-01-09T15:26:41.900Z,0
2023-01-09T15:27:41.899Z,0
2023-01-09T15:28:41.887Z,0
2023-01-09T15:29:41.905Z,0
2023-01-09T15:30:41.878Z,0
2023-01-09T15:31:41.849Z,0
2023-01-09T15:32:41.855Z,0
2023-01-09T15:33:41.835Z,0
2023-01-09T15:34:41.840Z,0
2023-01-09T15:35:41.811Z,0
2023-01-09T15:36:41.795Z,0
2023-01-09T15:37:41.795Z,0
2023-01-09T15:38:41.775Z,0
2023-01-09T15:39:41.778Z,0
2023-01-09T15:40:41.851Z,0
2023-01-09T16:01:25.385Z,0
2023-01-09T16:02:26.305Z,0
2023-01-09T16:03:25.314Z,0
2023-01-09T16:04:25.285Z,0
2023-01-09T16:05:25.300Z,0
2023-01-09T16:06:25.273Z,0
2023-01-09T16:07:25.328Z,0
2023-01-09T16:08:25.246Z,0
2023-01-09T16:09:25.236Z,0
2023-01-09T16:10:25.250Z,0
2023-01-09T16:11:25.255Z,0
2023-01-09T16:12:25.214Z,0
2023-01-09T16:13:25.262Z,0
2023-01-09T16:14:25.199Z,0
2023-01-09T16:15:25.173Z,0
2023-01-09T16:16:25.171Z,0
2023-01-09T16:17:25.170Z,0
2023-01-09T16:18:25.165Z,0
2023-01-09T16:19:25.128Z,0
2023-01-09T16:20:25.126Z,0
2023-01-09T16:21:25.101Z,0
2023-01-09T16:22:25.159Z,0
2023-01-09T16:23:25.099Z,0
2023-01-09T16:24:25.172Z,0